createdAt,value
2023-02-05T00:07:48.311Z,2.60
2023-02-05T00:22:51.962Z,3.50
2023-02-05T00:37:57.312Z,3.97
2023-02-05T00:53:01.640Z,2.77
2023-02-05T01:08:06.864Z,4.50
2023-02-05T01:23:10.999Z,3.10
2023-02-05T01:38:14.538Z,2.87
2023-02-05T01:53:24.799Z,3.23
2023-02-05T02:08:29.159Z,3.30
2023-02-05T02:23:53.974Z,3.30
2023-02-05T02:39:12.729Z,2.97
2023-02-05T02:54:17.683Z,3.90
2023-02-05T03:09:46.016Z,3.70
2023-02-05T03:24:51.213Z,3.97
2023-02-05T03:39:59.485Z,3.20
2023-02-05T03:55:11.967Z,3.00
2023-02-05T04:10:18.412Z,3.70
2023-02-05T04:25:23.490Z,4.90
2023-02-05T04:40:29.653Z,4.20
2023-02-05T04:55:34.457Z,4.30
2023-02-05T05:10:39.660Z,3.20
2023-02-05T05:25:44.885Z,3.90
2023-02-05T05:41:08.534Z,3.17
2023-02-05T05:56:11.771Z,3.47
2023-02-05T06:11:16.074Z,2.63
2023-02-05T06:26:19.988Z,4.30
2023-02-05T06:41:24.306Z,5.37
2023-02-05T06:56:28.093Z,2.93
2023-02-05T07:11:32.409Z,4.10
2023-02-05T07:26:36.850Z,5.27
2023-02-05T07:41:41.460Z,5.53
2023-02-05T07:56:51.524Z,5.40
2023-02-05T08:11:56.515Z,9.87
2023-02-05T08:27:01.209Z,8.13
2023-02-05T08:42:05.205Z,5.30
2023-02-05T08:57:09.888Z,4.27
2023-02-05T09:12:15.022Z,3.57
2023-02-05T09:27:19.185Z,2.60
2023-02-05T09:42:29.287Z,2.77
2023-02-05T09:57:36.618Z,2.33
2023-02-05T10:12:58.410Z,2.67
2023-02-05T10:28:05.211Z,2.93
2023-02-05T10:43:25.765Z,3.03
2023-02-05T10:58:41.503Z,2.73
2023-02-05T11:13:49.252Z,3.20
2023-02-05T11:28:55.271Z,2.63
2023-02-05T11:44:02.651Z,2.00
2023-02-05T11:59:07.141Z,2.23
2023-02-05T12:14:22.017Z,3.03
2023-02-05T12:29:40.553Z,3.20
2023-02-05T12:44:44.969Z,3.67
